Time;durP1;ratioP1;P1;durP2;ratioP2;P2;SDS_P1;SDS_P2;PMS_P1;PMS_P2;Temp;Humidity;BMP_temperature;BMP_pressure;BME280_temperature;BME280_humidity;BME280_pressure;Samples;Min_cycle;Max_cycle;Signal;HPM_P1;HPM_P2
2021/10/17 00:00:15;;;;;;;25.60;12.90;;;;;;;11.22;66.50;100293.09;4952064;29;20050;-90
2021/10/17 00:02:43;;;;;;;20.08;13.18;;;;;;;11.27;66.32;100297.16;4938084;29;20096;-90
2021/10/17 00:05:15;;;;;;;18.10;12.48;;;;;;;11.23;66.24;100294.78;4951853;28;20425;-91
2021/10/17 00:07:43;;;;;;;17.17;11.93;;;;;;;11.19;66.67;100299.31;4950718;29;20429;-91
2021/10/17 00:10:13;;;;;;;18.85;11.77;;;;;;;11.23;66.27;100305.22;4955409;28;20105;-91
2021/10/17 00:12:41;;;;;;;15.40;11.60;;;;;;;11.21;66.52;100297.47;4955272;28;20459;-91
2021/10/17 00:15:14;;;;;;;16.27;11.60;;;;;;;11.21;66.32;100307.06;4954738;29;20039;-90
2021/10/17 00:17:42;;;;;;;14.73;11.30;;;;;;;11.27;65.64;100298.91;4954364;29;20047;-89
2021/10/17 00:20:11;;;;;;;16.48;11.10;;;;;;;11.21;65.81;100299.25;4954880;29;20545;-89
2021/10/17 00:22:38;;;;;;;17.50;12.35;;;;;;;11.20;65.99;100292.34;4955594;29;20039;-90
2021/10/17 00:25:06;;;;;;;16.27;11.13;;;;;;;11.21;65.98;100296.63;4955509;29;20047;-90
2021/10/17 00:27:33;;;;;;;15.95;10.45;;;;;;;11.20;65.74;100295.78;4954791;29;20031;-89
2021/10/17 00:30:00;;;;;;;14.77;11.20;;;;;;;11.18;65.84;100292.41;4939283;29;20055;-89
2021/10/17 00:32:27;;;;;;;13.75;9.88;;;;;;;11.17;65.75;100292.50;4940650;29;20123;-92
2021/10/17 00:34:54;;;;;;;15.95;10.43;;;;;;;11.15;65.96;100299.56;4954793;29;20102;-89
2021/10/17 00:37:21;;;;;;;14.60;9.75;;;;;;;11.15;65.69;100296.97;4937960;29;20079;-88
2021/10/17 00:39:48;;;;;;;15.20;9.98;;;;;;;11.10;65.76;100302.41;4955271;29;20367;-89
2021/10/17 00:42:16;;;;;;;18.13;11.90;;;;;;;11.16;65.55;100299.47;4937839;29;20062;-90
2021/10/17 00:44:43;;;;;;;13.75;10.32;;;;;;;11.16;65.72;100303.84;4938015;29;20514;-89
2021/10/17 00:47:10;;;;;;;15.50;10.40;;;;;;;11.09;65.96;100290.28;4954769;29;20043;-90
2021/10/17 00:49:37;;;;;;;18.83;11.73;;;;;;;11.11;66.10;100291.03;4955837;29;20047;-88
2021/10/17 00:52:04;;;;;;;12.38;9.55;;;;;;;11.07;66.45;100306.94;4955965;28;20143;-93
2021/10/17 00:54:31;;;;;;;19.45;11.20;;;;;;;11.08;66.60;100303.38;4955668;29;20055;-94
2021/10/17 00:56:58;;;;;;;15.98;10.70;;;;;;;11.09;66.24;100305.09;4938807;29;20055;-93
2021/10/17 00:59:24;;;;;;;14.15;9.48;;;;;;;11.07;66.12;100292.13;4939633;29;20043;-92
2021/10/17 01:01:51;;;;;;;14.48;9.98;;;;;;;11.05;66.22;100301.78;4957378;29;20536;-92
2021/10/17 01:04:18;;;;;;;13.80;9.70;;;;;;;11.02;66.30;100301.94;4956940;29;20059;-91
2021/10/17 01:06:45;;;;;;;13.27;8.82;;;;;;;10.98;66.79;100298.66;4957245;29;20051;-92
2021/10/17 01:09:12;;;;;;;16.40;10.73;;;;;;;10.93;67.00;100303.25;4939479;29;20091;-92
2021/10/17 01:11:40;;;;;;;14.23;10.20;;;;;;;10.91;67.12;100304.25;4936515;29;20498;-88
2021/10/17 01:14:07;;;;;;;16.15;9.88;;;;;;;10.87;67.58;100298.38;4938993;29;20047;-88
2021/10/17 01:16:34;;;;;;;15.05;10.10;;;;;;;10.83;67.53;100296.81;4938620;29;20130;-86
2021/10/17 01:19:00;;;;;;;15.68;10.77;;;;;;;10.84;67.58;100289.84;4943690;29;20051;-91
2021/10/17 01:21:27;;;;;;;16.92;11.25;;;;;;;10.77;67.86;100291.91;4954471;29;20053;-92
2021/10/17 01:23:54;;;;;;;16.20;10.38;;;;;;;10.81;67.73;100298.66;4948391;29;20043;-92
2021/10/17 01:26:21;;;;;;;20.17;10.25;;;;;;;10.75;68.01;100293.75;4966019;28;20114;-93
2021/10/17 01:28:49;;;;;;;16.13;10.32;;;;;;;10.64;68.62;100293.44;4949238;29;20107;-88
2021/10/17 01:31:15;;;;;;;18.85;10.27;;;;;;;10.62;68.78;100293.50;4957271;29;20050;-89
2021/10/17 01:33:42;;;;;;;12.15;8.93;;;;;;;10.59;68.96;100295.41;4952585;29;20142;-85
2021/10/17 01:36:10;;;;;;;18.17;11.68;;;;;;;10.18;71.73;100304.31;4961338;29;20077;-86
2021/10/17 01:38:37;;;;;;;20.88;14.50;;;;;;;9.68;74.58;100306.63;4944918;29;20134;-85
2021/10/17 01:41:04;;;;;;;23.33;14.23;;;;;;;9.07;78.09;100307.59;4961701;28;20398;-85
2021/10/17 01:43:33;;;;;;;21.30;13.75;;;;;;;8.67;80.28;100303.19;4943200;29;20035;-86
2021/10/17 01:46:04;;;;;;;23.42;15.02;;;;;;;8.54;81.27;100305.47;4943504;29;20051;-86
2021/10/17 01:48:35;;;;;;;19.95;15.25;;;;;;;8.39;82.53;100303.47;4943014;29;20043;-89
2021/10/17 01:51:03;;;;;;;26.83;14.38;;;;;;;8.33;83.05;100314.94;4960829;29;20486;-88
2021/10/17 01:53:30;;;;;;;22.75;14.95;;;;;;;8.33;83.73;100301.94;4943221;28;20051;-88
2021/10/17 01:55:59;;;;;;;22.65;16.10;;;;;;;8.35;83.89;100301.88;4943794;29;20184;-88
2021/10/17 01:58:30;;;;;;;24.25;17.85;;;;;;;8.26;85.02;100308.28;4943800;29;20047;-88
2021/10/17 02:00:57;;;;;;;28.17;19.02;;;;;;;8.34;84.54;100305.38;4943827;29;20055;-88
2021/10/17 02:03:26;;;;;;;21.63;15.80;;;;;;;8.42;84.40;100297.34;4943166;29;20043;-89
2021/10/17 02:05:53;;;;;;;24.98;15.85;;;;;;;8.41;84.06;100296.47;4943053;29;20035;-91
2021/10/17 02:08:21;;;;;;;21.20;15.25;;;;;;;8.36;84.39;100299.28;4943477;29;20057;-91
2021/10/17 02:10:49;;;;;;;20.17;14.02;;;;;;;8.12;85.56;100295.84;4943615;29;20079;-90
2021/10/17 02:13:16;;;;;;;21.25;15.38;;;;;;;8.05;86.39;100294.41;4943423;29;20043;-86
2021/10/17 02:15:43;;;;;;;20.30;14.55;;;;;;;8.15;85.97;100294.88;4943424;29;20118;-86
2021/10/17 02:18:12;;;;;;;20.35;15.02;;;;;;;8.21;85.71;100283.41;4942823;29;20058;-86
2021/10/17 02:20:46;;;;;;;19.17;13.50;;;;;;;8.23;85.89;100285.03;4942958;29;20075;-86
2021/10/17 02:23:15;;;;;;;17.30;14.00;;;;;;;8.06;86.96;100287.44;4960154;29;20446;-86
2021/10/17 02:25:41;;;;;;;23.13;13.57;;;;;;;8.08;86.69;100289.06;4942611;28;20122;-86
2021/10/17 02:28:08;;;;;;;18.42;14.98;;;;;;;7.93;87.33;100288.81;4943262;29;20051;-86
2021/10/17 02:30:44;;;;;;;25.13;14.65;;;;;;;7.97;87.11;100291.25;4942590;29;20099;-90
2021/10/17 02:33:38;;;;;;;21.23;15.77;;;;;;;8.02;86.99;100286.72;4957534;29;20047;-90
2021/10/17 02:36:09;;;;;;;24.15;13.55;;;;;;;7.97;87.26;100286.03;4942155;28;20043;-89
2021/10/17 02:38:38;;;;;;;21.58;14.05;;;;;;;7.84;88.09;100282.25;4939359;29;20047;-87
2021/10/17 02:41:05;;;;;;;16.63;12.45;;;;;;;7.96;87.45;100283.53;4940133;29;20142;-86
2021/10/17 02:43:32;;;;;;;23.25;13.73;;;;;;;7.88;88.05;100283.78;4939792;29;20039;-87
2021/10/17 02:45:59;;;;;;;18.98;11.95;;;;;;;7.90;87.71;100283.75;4957106;29;20043;-88
2021/10/17 02:48:26;;;;;;;16.92;11.48;;;;;;;7.72;88.53;100280.94;4938902;29;20063;-86
2021/10/17 02:50:55;;;;;;;18.15;11.27;;;;;;;7.76;88.37;100284.28;4939809;29;20391;-88
2021/10/17 02:53:22;;;;;;;21.40;13.13;;;;;;;7.72;89.22;100288.72;4939085;29;20496;-88
2021/10/17 02:55:50;;;;;;;19.05;11.38;;;;;;;7.69;89.71;100286.25;4939705;29;20113;-87
2021/10/17 02:58:17;;;;;;;17.73;11.02;;;;;;;7.75;89.52;100287.78;4938875;29;20475;-89
2021/10/17 03:00:51;;;;;;;21.17;10.25;;;;;;;7.78;90.16;100278.13;4940002;29;20173;-88
2021/10/17 03:03:18;;;;;;;21.95;11.40;;;;;;;7.87;89.14;100282.94;4939152;29;20047;-91
2021/10/17 03:05:45;;;;;;;18.75;10.57;;;;;;;7.87;88.73;100282.94;4957314;29;20043;-89
2021/10/17 03:08:12;;;;;;;17.38;11.18;;;;;;;7.91;88.51;100281.09;4957221;29;20074;-89
2021/10/17 03:10:39;;;;;;;16.73;10.18;;;;;;;8.05;87.40;100288.38;4940459;29;20043;-90
2021/10/17 03:13:08;;;;;;;18.00;11.70;;;;;;;8.19;85.42;100278.25;4948146;29;20039;-89
2021/10/17 03:15:36;;;;;;;16.45;10.23;;;;;;;8.41;83.61;100278.28;4942378;29;20549;-91
2021/10/17 03:18:06;;;;;;;17.55;10.40;;;;;;;8.53;82.73;100279.56;4940502;29;20054;-89
2021/10/17 03:20:33;;;;;;;15.60;10.18;;;;;;;8.60;82.57;100281.81;4959647;29;20942;-88
2021/10/17 03:22:59;;;;;;;16.38;9.00;;;;;;;8.69;81.39;100278.00;4944088;29;20043;-90
2021/10/17 03:25:29;;;;;;;15.65;9.63;;;;;;;8.63;82.18;100283.47;4940205;29;20089;-88
2021/10/17 03:27:56;;;;;;;18.45;12.27;;;;;;;8.49;83.31;100284.03;4939444;29;20047;-87
2021/10/17 03:30:28;;;;;;;15.63;11.70;;;;;;;8.65;81.81;100292.03;4939630;29;20049;-88
2021/10/17 03:32:55;;;;;;;20.45;13.57;;;;;;;8.49;83.12;100280.56;4957080;29;20090;-87
2021/10/17 03:35:22;;;;;;;15.82;10.57;;;;;;;8.51;83.19;100286.53;4939021;29;20047;-85
2021/10/17 03:37:49;;;;;;;13.90;9.25;;;;;;;8.63;81.82;100280.88;4956740;28;20039;-86
2021/10/17 03:40:17;;;;;;;16.48;10.27;;;;;;;8.63;81.44;100288.66;4939341;29;20054;-85
2021/10/17 03:42:45;;;;;;;17.10;9.27;;;;;;;8.70;81.21;100282.28;4939410;29;20054;-85
2021/10/17 03:45:12;;;;;;;14.75;9.65;;;;;;;8.71;81.15;100281.38;4957501;29;20078;-86
2021/10/17 03:47:38;;;;;;;13.82;8.82;;;;;;;8.68;80.93;100276.28;4939141;28;20078;-87
2021/10/17 03:50:06;;;;;;;20.02;9.23;;;;;;;8.62;81.46;100281.75;4939598;29;20079;-86
2021/10/17 03:52:33;;;;;;;13.40;8.85;;;;;;;8.64;81.45;100272.16;4939841;29;20051;-89
2021/10/17 03:55:03;;;;;;;16.73;9.63;;;;;;;8.63;81.11;100280.88;4940021;29;20482;-89
2021/10/17 03:57:30;;;;;;;20.38;9.40;;;;;;;8.65;81.07;100269.50;4939041;29;20058;-90
2021/10/17 03:59:57;;;;;;;14.98;8.82;;;;;;;8.65;81.04;100284.22;4938532;29;20155;-91
2021/10/17 04:02:25;;;;;;;14.35;9.27;;;;;;;8.73;80.62;100279.53;4938177;29;20102;-91
2021/10/17 04:04:52;;;;;;;18.05;9.07;;;;;;;8.75;80.76;100271.72;4938244;28;20042;-88
2021/10/17 04:07:27;;;;;;;17.35;9.85;;;;;;;8.74;80.88;100272.63;4938711;29;20051;-88
2021/10/17 04:09:54;;;;;;;15.45;9.38;;;;;;;8.85;80.00;100266.06;4938275;29;20048;-88
2021/10/17 04:12:20;;;;;;;15.55;9.25;;;;;;;8.81;79.99;100274.03;4938326;29;20043;-88
2021/10/17 04:14:52;;;;;;;18.88;11.23;;;;;;;8.75;80.33;100269.94;4938238;29;20082;-89
2021/10/17 04:17:19;;;;;;;18.13;9.30;;;;;;;8.71;80.72;100270.97;4938029;29;20110;-91
2021/10/17 04:19:46;;;;;;;18.30;9.15;;;;;;;8.76;80.19;100266.44;4937791;28;20419;-89
2021/10/17 04:22:13;;;;;;;15.68;10.00;;;;;;;8.78;79.98;100274.16;4956368;28;20047;-91
2021/10/17 04:24:39;;;;;;;18.73;9.77;;;;;;;8.89;79.29;100271.94;4938674;29;20137;-93
2021/10/17 04:27:08;;;;;;;15.60;8.90;;;;;;;9.01;78.17;100268.00;4938345;29;20114;-90
2021/10/17 04:29:38;;;;;;;14.60;9.07;;;;;;;9.07;77.53;100265.97;4938220;29;20192;-89
2021/10/17 04:32:07;;;;;;;15.52;10.07;;;;;;;9.10;77.50;100275.38;4938103;29;20043;-89
2021/10/17 04:34:34;;;;;;;15.95;9.80;;;;;;;9.12;76.99;100271.81;4955519;29;20487;-89
2021/10/17 04:37:02;;;;;;;15.05;9.18;;;;;;;9.11;77.59;100266.69;4937531;29;20054;-88
2021/10/17 04:39:29;;;;;;;18.08;8.65;;;;;;;9.04;77.42;100267.84;4938849;29;20051;-87
2021/10/17 04:41:58;;;;;;;16.88;9.52;;;;;;;9.02;77.53;100274.88;4937670;29;20122;-89
2021/10/17 04:44:25;;;;;;;17.73;9.98;;;;;;;8.98;78.02;100278.53;4939325;29;20043;-88
2021/10/17 04:46:52;;;;;;;14.55;8.25;;;;;;;8.90;78.39;100276.25;4958677;28;20070;-87
2021/10/17 04:49:25;;;;;;;14.77;8.20;;;;;;;8.81;78.89;100277.50;4951177;29;20047;-88
2021/10/17 04:51:54;;;;;;;17.60;10.07;;;;;;;8.82;79.27;100275.72;4923573;29;20044;-89
2021/10/17 04:54:22;;;;;;;17.33;9.32;;;;;;;8.76;79.34;100284.63;4941976;29;20079;-89
2021/10/17 04:56:49;;;;;;;14.63;8.88;;;;;;;8.79;79.07;100276.72;4944931;29;20047;-86
2021/10/17 04:59:21;;;;;;;16.60;9.30;;;;;;;8.91;78.91;100276.19;4948269;28;20043;-88
2021/10/17 05:01:52;;;;;;;17.25;9.25;;;;;;;8.90;79.13;100282.31;4939175;29;20070;-87
2021/10/17 05:04:19;;;;;;;11.95;8.90;;;;;;;8.97;78.64;100280.28;4938338;29;20043;-87
2021/10/17 05:06:46;;;;;;;13.57;8.50;;;;;;;9.02;77.99;100272.28;4956126;29;20062;-88
2021/10/17 05:09:13;;;;;;;16.73;8.55;;;;;;;9.03;77.79;100280.00;4922031;29;20093;-87
2021/10/17 05:11:40;;;;;;;14.18;10.18;;;;;;;9.03;77.83;100273.97;4955756;29;20036;-87
2021/10/17 05:14:08;;;;;;;14.35;8.73;;;;;;;9.04;77.58;100271.28;4925598;29;20086;-83
2021/10/17 05:16:35;;;;;;;16.38;9.05;;;;;;;9.07;77.20;100276.38;4937177;29;20035;-83
2021/10/17 05:19:02;;;;;;;18.15;9.65;;;;;;;9.13;76.78;100276.09;4936669;29;20142;-82
2021/10/17 05:21:32;;;;;;;17.92;10.90;;;;;;;9.14;76.53;100272.59;4937237;29;20446;-82
2021/10/17 05:23:59;;;;;;;15.45;10.10;;;;;;;9.11;76.74;100274.50;4936487;29;20043;-83
2021/10/17 05:26:26;;;;;;;13.60;8.65;;;;;;;9.10;76.85;100280.59;4936939;29;20061;-82
2021/10/17 05:28:53;;;;;;;15.27;9.25;;;;;;;9.05;77.34;100283.38;4953642;29;20081;-83
2021/10/17 05:31:20;;;;;;;14.98;9.55;;;;;;;9.05;77.24;100290.34;4936718;29;20051;-82
2021/10/17 05:33:46;;;;;;;14.18;8.43;;;;;;;9.07;77.27;100288.53;4936675;29;20050;-83
2021/10/17 05:36:13;;;;;;;16.85;8.65;;;;;;;9.04;77.17;100289.50;4936307;29;20063;-84
2021/10/17 05:38:44;;;;;;;15.02;8.93;;;;;;;8.98;77.67;100294.13;4936765;29;20040;-83
2021/10/17 05:41:12;;;;;;;16.85;9.63;;;;;;;8.92;78.06;100296.06;4936143;29;20108;-83
2021/10/17 05:43:40;;;;;;;14.93;8.88;;;;;;;8.88;78.53;100306.66;4936625;29;20040;-82
2021/10/17 05:46:07;;;;;;;13.38;8.50;;;;;;;8.83;79.17;100304.25;4936446;29;20048;-82
2021/10/17 05:48:34;;;;;;;17.52;8.80;;;;;;;8.82;79.06;100294.75;4936395;29;20324;-81
2021/10/17 05:51:01;;;;;;;14.45;9.05;;;;;;;8.89;78.56;100309.22;4936460;29;20043;-82
2021/10/17 05:53:28;;;;;;;14.75;8.27;;;;;;;8.89;78.59;100314.41;4936155;29;20051;-82
2021/10/17 05:55:55;;;;;;;17.10;9.13;;;;;;;9.01;77.61;100322.59;4936282;29;20102;-82
2021/10/17 05:58:22;;;;;;;14.98;9.90;;;;;;;9.18;76.43;100317.53;4937044;29;20074;-87
2021/10/17 06:00:49;;;;;;;13.10;9.68;;;;;;;9.35;75.52;100324.59;4937431;29;20048;-83
2021/10/17 06:03:16;;;;;;;15.80;8.98;;;;;;;9.37;75.76;100330.56;4936885;29;20067;-85
2021/10/17 06:06:02;;;;;;;12.55;7.35;;;;;;;9.31;76.01;100334.28;4954807;28;20106;-84
2021/10/17 06:08:35;;;;;;;10.93;6.95;;;;;;;9.39;75.73;100332.19;4921260;29;20043;-87
2021/10/17 06:11:07;;;;;;;10.90;7.18;;;;;;;9.48;75.50;100336.16;4935734;29;20047;-86
2021/10/17 06:13:35;;;;;;;13.48;8.00;;;;;;;9.53;75.20;100333.34;4949659;28;20047;-82
2021/10/17 06:16:03;;;;;;;15.02;7.53;;;;;;;9.70;74.87;100341.25;4932847;29;20055;-85
2021/10/17 06:18:31;;;;;;;18.92;9.27;;;;;;;9.71;74.98;100345.56;4939736;29;20069;-86
2021/10/17 06:20:58;;;;;;;16.50;9.45;;;;;;;9.85;73.98;100342.31;4939985;29;20051;-84
2021/10/17 06:23:26;;;;;;;15.10;8.10;;;;;;;9.87;74.34;100345.69;4939125;29;20054;-85
2021/10/17 06:25:52;;;;;;;16.48;8.38;;;;;;;9.92;76.08;100360.19;4940369;29;20620;-89
2021/10/17 06:28:20;;;;;;;16.48;6.65;;;;;;;9.91;75.33;100358.53;4939395;29;20057;-87
2021/10/17 06:30:47;;;;;;;12.93;8.18;;;;;;;9.96;74.39;100371.34;4923428;29;20043;-85
2021/10/17 06:33:15;;;;;;;12.85;8.60;;;;;;;10.05;73.87;100376.09;4938975;29;20138;-92
2021/10/17 06:35:42;;;;;;;20.80;9.23;;;;;;;10.13;74.38;100373.16;4939251;29;20039;-88
2021/10/17 06:38:09;;;;;;;15.13;8.10;;;;;;;10.15;74.38;100376.53;4946052;29;20043;-88
2021/10/17 06:40:36;;;;;;;14.43;8.95;;;;;;;10.10;75.25;100383.72;4938966;29;20050;-93
2021/10/17 06:43:07;;;;;;;16.42;10.55;;;;;;;10.10;75.72;100384.56;4939605;29;20081;-87
2021/10/17 06:45:50;;;;;;;15.55;9.68;;;;;;;10.11;76.63;100383.63;4937286;29;20040;-85
2021/10/17 06:48:19;;;;;;;18.10;10.85;;;;;;;10.16;75.67;100388.63;4937552;29;20413;-90
2021/10/17 06:50:46;;;;;;;14.85;9.43;;;;;;;10.30;75.76;100383.66;4935160;29;20098;-84
2021/10/17 06:53:13;;;;;;;13.50;7.20;;;;;;;10.34;78.19;100392.19;4926008;29;20083;-79
2021/10/17 06:55:41;;;;;;;13.18;8.25;;;;;;;10.16;79.49;100393.84;4933831;29;20171;-81
2021/10/17 06:58:13;;;;;;;12.57;8.20;;;;;;;10.18;79.48;100392.03;4932585;29;20048;-80
2021/10/17 07:00:39;;;;;;;16.02;8.57;;;;;;;10.35;78.21;100393.88;4943294;29;20483;-80
2021/10/17 07:03:07;;;;;;;14.32;7.72;;;;;;;10.53;78.24;100399.97;4929320;29;20070;-79
2021/10/17 07:05:52;;;;;;;18.17;7.97;;;;;;;10.66;77.45;100398.50;4928971;29;20052;-78
2021/10/17 07:08:20;;;;;;;15.75;8.80;;;;;;;10.72;76.54;100403.41;4934645;29;20044;-82
2021/10/17 07:10:53;;;;;;;17.27;9.65;;;;;;;10.86;75.83;100410.56;4931472;29;20047;-78
2021/10/17 07:13:39;;;;;;;14.77;9.25;;;;;;;11.09;74.30;100407.69;4932561;29;20058;-78
2021/10/17 07:16:08;;;;;;;16.80;8.80;;;;;;;11.11;73.56;100411.06;4934444;29;20054;-79
2021/10/17 07:18:35;;;;;;;19.95;10.73;;;;;;;11.26;73.17;100414.66;4933159;29;20513;-79
2021/10/17 07:21:02;;;;;;;16.63;10.70;;;;;;;11.35;73.43;100414.22;4935734;29;20450;-79
2021/10/17 07:23:29;;;;;;;19.92;10.32;;;;;;;11.53;72.72;100410.66;4932857;29;20048;-79
2021/10/17 07:25:56;;;;;;;19.75;10.32;;;;;;;11.58;71.08;100414.81;4934251;29;20051;-79
2021/10/17 07:28:23;;;;;;;14.73;9.52;;;;;;;11.74;70.39;100408.69;4939059;29;20086;-78
2021/10/17 07:31:04;;;;;;;13.68;8.73;;;;;;;11.75;68.30;100415.59;4926943;29;20044;-78
2021/10/17 07:33:57;;;;;;;19.42;10.85;;;;;;;11.74;67.93;100416.53;4920778;29;20045;-75
2021/10/17 07:36:24;;;;;;;19.60;8.52;;;;;;;11.95;69.03;100424.22;4937645;29;20110;-80
2021/10/17 07:39:04;;;;;;;12.52;8.15;;;;;;;11.96;67.57;100425.88;4928947;29;20039;-81
2021/10/17 07:41:34;;;;;;;16.48;9.13;;;;;;;11.89;66.09;100425.38;4933796;29;20044;-80
2021/10/17 07:44:05;;;;;;;17.67;9.27;;;;;;;11.90;65.78;100429.66;4926258;29;20059;-80
2021/10/17 07:46:37;;;;;;;21.67;10.60;;;;;;;12.02;66.48;100433.41;4932370;29;20044;-78
2021/10/17 07:49:12;;;;;;;27.58;10.05;;;;;;;11.98;66.38;100429.25;4933381;29;20387;-80
2021/10/17 07:51:41;;;;;;;18.90;10.63;;;;;;;12.09;65.60;100439.13;4914133;29;20099;-82
2021/10/17 07:54:10;;;;;;;20.27;9.50;;;;;;;12.34;66.86;100447.34;4928316;29;20052;-79
2021/10/17 07:56:41;;;;;;;15.48;8.82;;;;;;;12.44;64.90;100442.47;4925875;29;20083;-85
2021/10/17 07:59:10;;;;;;;15.07;9.07;;;;;;;12.51;64.77;100447.28;4922832;29;20040;-82
2021/10/17 08:01:40;;;;;;;20.27;10.48;;;;;;;12.15;64.80;100449.28;4939756;29;20598;-80
2021/10/17 08:04:37;;;;;;;13.68;9.57;;;;;;;12.28;65.39;100448.53;4932671;29;20040;-82
2021/10/17 08:07:30;;;;;;;17.00;9.57;;;;;;;12.19;65.56;100459.47;4931373;29;20368;-85
2021/10/17 08:10:00;;;;;;;15.15;9.95;;;;;;;12.16;65.33;100461.44;4947489;29;20138;-80
2021/10/17 08:12:28;;;;;;;16.40;10.07;;;;;;;12.01;65.30;100461.31;4945685;29;20071;-79
2021/10/17 08:14:55;;;;;;;17.23;10.85;;;;;;;12.06;64.99;100459.28;4926547;29;20546;-80
2021/10/17 08:17:24;;;;;;;16.95;10.45;;;;;;;12.14;65.52;100452.81;4920034;29;20195;-80
2021/10/17 08:19:56;;;;;;;15.23;9.40;;;;;;;12.04;65.84;100455.94;4926775;29;20125;-79
2021/10/17 08:22:24;;;;;;;13.82;9.57;;;;;;;12.14;66.08;100460.66;4921879;29;20091;-78
2021/10/17 08:24:55;;;;;;;20.48;10.40;;;;;;;12.16;65.68;100466.66;4923223;29;20052;-80
2021/10/17 08:27:22;;;;;;;14.70;9.65;;;;;;;12.28;65.92;100463.38;4929849;29;20059;-78
2021/10/17 08:29:49;;;;;;;19.98;10.68;;;;;;;12.06;66.36;100463.69;4929927;29;20419;-80
2021/10/17 08:32:18;;;;;;;14.45;9.63;;;;;;;12.34;65.81;100465.66;4941871;29;20522;-81
2021/10/17 08:34:45;;;;;;;17.45;10.10;;;;;;;12.35;65.48;100469.94;4918814;29;21447;-79
2021/10/17 08:37:14;;;;;;;17.30;10.93;;;;;;;12.54;63.97;100459.34;4914516;29;20058;-78
2021/10/17 08:40:17;;;;;;;19.80;11.73;;;;;;;12.79;63.18;100454.47;4907084;29;20056;-79
2021/10/17 08:43:02;;;;;;;17.75;10.73;;;;;;;12.61;63.59;100465.09;4926039;29;20224;-79
2021/10/17 08:45:36;;;;;;;18.75;12.52;;;;;;;12.73;63.35;100459.16;4926605;29;20039;-79
2021/10/17 08:48:08;;;;;;;18.52;12.10;;;;;;;12.46;63.45;100459.75;4926884;29;20119;-80
2021/10/17 08:50:44;;;;;;;17.42;11.77;;;;;;;12.75;63.34;100457.34;4928870;29;20050;-80
2021/10/17 08:53:11;;;;;;;14.23;9.68;;;;;;;12.88;62.23;100457.47;4939252;29;20166;-80
2021/10/17 08:55:51;;;;;;;18.65;11.35;;;;;;;12.80;61.74;100461.38;4934426;29;20144;-81
2021/10/17 08:58:25;;;;;;;14.38;9.50;;;;;;;13.10;61.52;100461.44;4934687;29;20069;-81
2021/10/17 09:00:53;;;;;;;17.20;10.40;;;;;;;13.22;61.08;100456.47;4930626;29;20515;-80
2021/10/17 09:03:38;;;;;;;16.35;9.55;;;;;;;13.47;59.97;100456.69;4932130;29;20036;-80
2021/10/17 09:06:18;;;;;;;15.60;10.93;;;;;;;13.27;60.90;100449.19;4931739;29;20417;-80
2021/10/17 09:09:05;;;;;;;15.38;10.13;;;;;;;13.60;60.41;100462.91;4930945;29;20051;-80
2021/10/17 09:11:47;;;;;;;13.77;8.75;;;;;;;13.58;60.71;100461.31;4927752;29;20044;-80
2021/10/17 09:14:17;;;;;;;20.75;9.82;;;;;;;13.26;61.32;100463.19;4938586;29;20047;-80
2021/10/17 09:16:49;;;;;;;27.25;13.00;;;;;;;13.39;60.99;100451.09;4943467;29;20039;-80
2021/10/17 09:19:20;;;;;;;18.75;11.52;;;;;;;13.32;60.99;100447.97;4943542;29;20090;-79
2021/10/17 09:22:05;;;;;;;18.90;11.00;;;;;;;13.52;60.17;100454.66;4948164;29;20391;-82
2021/10/17 09:24:40;;;;;;;21.83;12.82;;;;;;;13.75;59.71;100449.84;4946907;29;20038;-81
2021/10/17 09:27:18;;;;;;;25.20;12.65;;;;;;;13.68;60.09;100444.09;4939771;29;20117;-81
2021/10/17 09:29:54;;;;;;;19.98;12.00;;;;;;;13.85;60.29;100440.50;4946910;29;20394;-81
2021/10/17 09:32:27;;;;;;;20.35;11.93;;;;;;;13.96;59.16;100438.06;4946941;29;20043;-80
2021/10/17 09:34:55;;;;;;;19.20;12.10;;;;;;;14.03;58.93;100436.75;4944940;29;20051;-82
2021/10/17 09:37:39;;;;;;;22.42;12.35;;;;;;;14.02;59.08;100437.69;4948655;29;20114;-82
2021/10/17 09:40:26;;;;;;;24.35;12.10;;;;;;;14.25;58.85;100440.66;4950352;29;20141;-84
2021/10/17 09:43:15;;;;;;;17.13;11.75;;;;;;;14.41;58.31;100446.63;4949860;28;20047;-82
2021/10/17 09:46:12;;;;;;;22.73;11.75;;;;;;;14.44;57.92;100435.97;4929938;29;20047;-84
2021/10/17 09:48:41;;;;;;;22.42;12.20;;;;;;;14.47;57.93;100443.66;4957018;29;20058;-86
2021/10/17 09:51:12;;;;;;;18.80;11.93;;;;;;;14.51;57.43;100445.16;4953363;29;20714;-83
2021/10/17 09:53:39;;;;;;;17.65;11.43;;;;;;;14.43;57.11;100444.75;4953706;29;20529;-81
2021/10/17 09:56:06;;;;;;;17.65;11.10;;;;;;;14.50;57.14;100448.72;4955468;28;20035;-81
2021/10/17 09:58:34;;;;;;;18.20;11.98;;;;;;;14.63;56.83;100439.13;4957581;29;20047;-79
2021/10/17 10:01:01;;;;;;;21.60;11.93;;;;;;;14.52;56.94;100441.59;4956573;29;20047;-83
2021/10/17 10:03:28;;;;;;;28.08;13.70;;;;;;;14.72;56.69;100442.94;4957322;29;20039;-83
2021/10/17 10:05:57;;;;;;;21.33;12.88;;;;;;;14.56;57.19;100445.72;4957511;29;20497;-80
2021/10/17 10:08:25;;;;;;;23.65;12.05;;;;;;;14.64;57.11;100443.44;4957257;29;20047;-82
2021/10/17 10:10:52;;;;;;;20.73;12.35;;;;;;;14.87;56.73;100447.22;4957471;28;20047;-82
2021/10/17 10:13:21;;;;;;;17.52;12.23;;;;;;;15.01;56.26;100442.84;4957197;29;20051;-81
2021/10/17 10:15:50;;;;;;;18.77;11.60;;;;;;;14.97;55.95;100443.97;4939658;29;20047;-83
2021/10/17 10:18:18;;;;;;;21.25;11.50;;;;;;;15.00;56.34;100447.25;4957366;29;20079;-83
2021/10/17 10:20:45;;;;;;;17.48;11.25;;;;;;;15.03;56.22;100447.06;4957336;29;20046;-83
2021/10/17 10:23:12;;;;;;;27.65;11.70;;;;;;;14.96;56.73;100444.94;4940665;29;20074;-83
2021/10/17 10:25:41;;;;;;;17.25;11.98;;;;;;;15.01;56.54;100438.44;4957595;29;20102;-82
2021/10/17 10:28:12;;;;;;;20.20;12.43;;;;;;;15.73;55.02;100444.19;4957379;28;20047;-82
2021/10/17 10:30:39;;;;;;;19.95;12.80;;;;;;;15.58;54.87;100439.94;4954226;29;20047;-82
2021/10/17 10:33:06;;;;;;;19.95;11.43;;;;;;;15.58;55.01;100442.56;4957368;28;20071;-82
2021/10/17 10:35:34;;;;;;;20.77;12.90;;;;;;;15.38;54.96;100433.38;4956321;29;20438;-83
2021/10/17 10:38:02;;;;;;;23.65;14.27;;;;;;;15.62;54.83;100439.63;4939847;29;20539;-81
2021/10/17 10:40:29;;;;;;;21.80;13.43;;;;;;;15.48;55.83;100434.44;4956989;29;20066;-81
2021/10/17 10:43:13;;;;;;;18.15;11.75;;;;;;;15.92;54.12;100435.84;4957021;29;20050;-82
2021/10/17 10:45:39;;;;;;;15.95;12.18;;;;;;;16.17;53.37;100435.81;4957174;28;20072;-81
2021/10/17 10:48:10;;;;;;;23.38;13.02;;;;;;;16.02;53.51;100430.78;4957542;29;20107;-82
2021/10/17 10:50:41;;;;;;;21.10;13.98;;;;;;;15.73;54.11;100431.03;4940334;29;20089;-81
2021/10/17 10:53:46;;;;;;;18.30;12.98;;;;;;;15.66;55.07;100425.38;4956954;28;20466;-82
2021/10/17 10:56:41;;;;;;;20.48;13.27;;;;;;;16.01;54.52;100427.34;4956747;28;20055;-82
2021/10/17 10:59:09;;;;;;;27.80;15.52;;;;;;;15.76;55.08;100419.44;4956893;28;20066;-81
2021/10/17 11:02:19;;;;;;;20.38;15.40;;;;;;;15.73;55.16;100420.53;4956921;29;20502;-81
2021/10/17 11:04:46;;;;;;;24.77;15.05;;;;;;;16.04;54.11;100424.50;4957102;29;20126;-80
2021/10/17 11:07:19;;;;;;;21.80;16.88;;;;;;;15.99;53.70;100413.47;4956806;29;20118;-81
2021/10/17 11:09:53;;;;;;;22.77;14.68;;;;;;;16.08;54.21;100417.22;4956578;29;20517;-82
2021/10/17 11:12:41;;;;;;;27.00;15.45;;;;;;;16.00;54.37;100411.66;4957019;29;20189;-80
2021/10/17 11:15:10;;;;;;;24.10;15.65;;;;;;;16.24;54.05;100402.03;4957116;29;20046;-82
2021/10/17 11:17:38;;;;;;;27.10;18.45;;;;;;;16.17;54.65;100409.53;4956722;29;20043;-81
2021/10/17 11:20:05;;;;;;;25.70;17.73;;;;;;;16.37;53.93;100415.19;4956520;29;20043;-81
2021/10/17 11:22:35;;;;;;;27.30;17.27;;;;;;;16.48;53.27;100407.34;4956514;29;20368;-81
2021/10/17 11:25:03;;;;;;;28.45;17.15;;;;;;;16.10;54.23;100395.16;4956119;29;20044;-81
2021/10/17 11:27:34;;;;;;;27.92;17.02;;;;;;;16.44;52.70;100398.81;4956721;29;20055;-79
2021/10/17 11:30:01;;;;;;;26.23;16.33;;;;;;;16.48;52.56;100394.19;4956188;29;20118;-85